Time;durP1;ratioP1;P1;durP2;ratioP2;P2;SDS_P1;SDS_P2;PMS_P1;PMS_P2;Temp;Humidity;BMP_temperature;BMP_pressure;BME280_temperature;BME280_humidity;BME280_pressure;Samples;Min_cycle;Max_cycle;Signal;HPM_P1;HPM_P2
2021/12/09 00:03:12;;;;;;;27.10;14.93;;;;;;;7.13;100.00;99784.81;10495798;28;20053;-74
2021/12/09 00:08:14;;;;;;;28.13;15.55;;;;;;;7.42;100.00;99823.22;10495736;28;20040;-73
2021/12/09 00:13:14;;;;;;;29.58;14.75;;;;;;;7.47;100.00;99823.56;10496390;28;20048;-73
2021/12/09 00:18:16;;;;;;;33.25;15.93;;;;;;;7.48;100.00;99856.97;10494957;28;20045;-73
2021/12/09 00:23:17;;;;;;;37.80;18.55;;;;;;;7.47;100.00;99864.03;10495606;28;20131;-73
2021/12/09 00:28:18;;;;;;;45.65;21.05;;;;;;;7.34;100.00;99865.50;10495415;28;20068;-74
2021/12/09 00:33:19;;;;;;;50.03;20.48;;;;;;;7.55;100.00;99873.81;10499047;28;20048;-73
2021/12/09 00:38:33;;;;;;;43.58;20.85;;;;;;;7.60;100.00;99863.59;10502719;28;20094;-73
2021/12/09 00:43:35;;;;;;;36.90;18.90;;;;;;;7.66;100.00;99899.16;10502545;28;20071;-73
2021/12/09 00:48:36;;;;;;;41.55;20.75;;;;;;;7.73;100.00;99889.59;10502167;28;20470;-73
2021/12/09 00:53:38;;;;;;;39.38;20.10;;;;;;;6.97;100.00;99766.25;10502245;28;20084;-73
2021/12/09 00:58:42;;;;;;;39.65;19.58;;;;;;;7.86;100.00;99899.69;10502977;28;20139;-73
2021/12/09 01:03:43;;;;;;;36.97;17.52;;;;;;;7.67;100.00;99851.38;10501625;28;20404;-73
2021/12/09 01:08:45;;;;;;;37.47;17.63;;;;;;;7.63;100.00;99839.50;10502004;28;20040;-73
2021/12/09 01:13:46;;;;;;;32.17;17.50;;;;;;;7.93;100.00;99882.22;10501930;28;20044;-73
2021/12/09 01:18:47;;;;;;;30.88;16.55;;;;;;;7.80;100.00;99874.72;10501325;28;20044;-73
2021/12/09 01:23:48;;;;;;;26.95;16.10;;;;;;;7.60;100.00;99834.53;10502788;28;20037;-73
2021/12/09 01:28:54;;;;;;;26.63;15.52;;;;;;;7.89;100.00;99888.78;10483512;28;20042;-74
2021/12/09 01:34:01;;;;;;;31.75;16.27;;;;;;;8.04;100.00;99889.81;10501178;28;20102;-74
2021/12/09 01:39:04;;;;;;;25.98;14.98;;;;;;;6.25;100.00;99599.53;10500929;28;20036;-74
2021/12/09 01:44:05;;;;;;;27.80;14.43;;;;;;;6.89;100.00;99690.50;10499491;28;20044;-74
2021/12/09 01:49:07;;;;;;;26.63;14.82;;;;;;;7.06;100.00;99734.47;10501330;28;20610;-73
2021/12/09 01:54:08;;;;;;;30.30;15.48;;;;;;;8.07;100.00;99896.59;10500209;28;20040;-73
2021/12/09 01:59:09;;;;;;;29.90;14.70;;;;;;;7.96;100.00;99882.72;10500233;28;20089;-73
2021/12/09 02:04:11;;;;;;;27.50;14.40;;;;;;;7.98;100.00;99879.88;10481424;28;20048;-73
2021/12/09 02:09:14;;;;;;;27.13;15.60;;;;;;;8.13;100.00;99899.41;10482476;28;20043;-73
2021/12/09 02:14:15;;;;;;;32.47;16.08;;;;;;;7.22;100.00;99744.25;10490456;28;20515;-73
2021/12/09 02:19:16;;;;;;;29.77;15.52;;;;;;;8.19;100.00;99901.41;10498748;28;20051;-74
2021/12/09 02:24:18;;;;;;;27.70;15.40;;;;;;;8.20;100.00;99896.97;10499190;28;20527;-73
2021/12/09 02:29:19;;;;;;;34.72;15.43;;;;;;;8.07;100.00;99883.38;10498543;28;20466;-74
2021/12/09 02:34:20;;;;;;;36.00;15.85;;;;;;;8.21;100.00;99925.88;10498768;28;20471;-73
2021/12/09 02:39:21;;;;;;;33.70;15.65;;;;;;;8.17;100.00;99927.22;10498998;28;20078;-73
2021/12/09 02:44:23;;;;;;;30.63;16.13;;;;;;;7.04;100.00;99756.72;10499036;28;20119;-73
2021/12/09 02:49:27;;;;;;;31.13;16.92;;;;;;;7.70;100.00;99882.78;10498757;28;20109;-74
2021/12/09 02:54:28;;;;;;;37.08;17.02;;;;;;;6.83;100.00;99760.59;10497936;28;20083;-73
2021/12/09 02:59:29;;;;;;;32.47;16.40;;;;;;;7.32;100.00;99845.31;10498362;28;20476;-73
2021/12/09 03:04:47;;;;;;;29.77;16.08;;;;;;;7.84;100.00;99943.97;10468832;28;20408;-74
2021/12/09 03:09:53;;;;;;;28.10;16.70;;;;;;;6.30;100.00;99722.06;10487420;28;20049;-74
2021/12/09 03:14:55;;;;;;;33.35;16.85;;;;;;;7.74;100.00;99981.94;10456118;28;20465;-74
2021/12/09 03:19:56;;;;;;;30.90;16.10;;;;;;;5.87;100.00;99665.72;10455648;28;20136;-74
2021/12/09 03:24:57;;;;;;;39.53;16.52;;;;;;;7.46;100.00;99946.97;10455368;28;20408;-74
2021/12/09 03:29:58;;;;;;;28.92;14.60;;;;;;;7.81;100.00;99989.25;10454625;28;20041;-74
2021/12/09 03:34:59;;;;;;;28.48;14.55;;;;;;;7.09;100.00;99878.59;10454479;28;20045;-73
2021/12/09 03:39:59;;;;;;;29.20;15.70;;;;;;;7.46;100.00;99943.50;10477951;28;20036;-74
2021/12/09 03:45:03;;;;;;;29.27;15.15;;;;;;;6.55;100.00;99796.06;10459106;28;20049;-74
2021/12/09 03:50:08;;;;;;;25.60;14.10;;;;;;;7.63;100.00;99971.66;10454439;28;20060;-74
2021/12/09 03:55:09;;;;;;;23.92;13.30;;;;;;;7.69;100.00;100004.59;10452911;28;20047;-74
2021/12/09 04:00:11;;;;;;;29.95;15.15;;;;;;;8.06;100.00;100051.84;10449963;28;20099;-74
2021/12/09 04:05:12;;;;;;;24.55;13.75;;;;;;;7.19;100.00;99911.00;10449752;28;20040;-75
2021/12/09 04:10:13;;;;;;;24.20;13.68;;;;;;;7.96;100.00;100048.50;10436089;28;20504;-70
2021/12/09 04:15:14;;;;;;;25.75;13.40;;;;;;;7.98;100.00;100073.78;10454258;28;20405;-73
2021/12/09 04:20:15;;;;;;;25.20;13.32;;;;;;;8.26;100.00;100104.53;10454045;28;20040;-75
2021/12/09 04:25:17;;;;;;;22.52;12.77;;;;;;;8.12;100.00;100098.00;10454048;28;20041;-75
2021/12/09 04:30:19;;;;;;;25.13;13.45;;;;;;;8.22;100.00;100110.13;10453422;28;20501;-73
2021/12/09 04:35:21;;;;;;;27.15;12.60;;;;;;;8.22;100.00;100131.28;10453748;28;20053;-72
2021/12/09 04:40:22;;;;;;;25.40;12.80;;;;;;;7.96;100.00;100075.78;10453255;28;20037;-72
2021/12/09 04:45:23;;;;;;;29.40;13.18;;;;;;;8.08;100.00;100117.84;10455848;28;20052;-72
2021/12/09 04:50:25;;;;;;;24.15;13.43;;;;;;;7.36;100.00;100004.41;10494271;28;20051;-75
2021/12/09 04:55:28;;;;;;;27.63;13.82;;;;;;;7.90;100.00;100096.75;10494669;28;20079;-86
2021/12/09 05:00:32;;;;;;;29.63;14.15;;;;;;;7.93;100.00;100101.72;10494184;28;20036;-76
2021/12/09 05:05:39;;;;;;;22.67;13.48;;;;;;;8.13;100.00;100137.53;10494111;28;20142;-76
2021/12/09 05:11:07;;;;;;;30.13;12.95;;;;;;;8.01;100.00;100126.38;10494642;28;20105;-76
2021/12/09 05:16:10;;;;;;;21.95;12.05;;;;;;;6.66;100.00;99897.94;10493765;28;20444;-76
2021/12/09 05:21:12;;;;;;;23.27;11.52;;;;;;;8.26;100.00;100166.22;10498941;28;20404;-77
2021/12/09 05:26:14;;;;;;;22.00;11.93;;;;;;;8.26;100.00;100166.22;10502259;28;20037;-77
2021/12/09 05:36:34;;;;;;;22.02;12.48;;;;;;;8.01;100.00;100120.28;10501325;28;20488;-76
2021/12/09 05:41:35;;;;;;;17.70;10.93;;;;;;;7.93;100.00;100107.84;10501764;28;20083;-76
2021/12/09 05:46:40;;;;;;;18.55;10.80;;;;;;;8.42;100.00;100186.69;10500565;28;20056;-76
2021/12/09 05:51:43;;;;;;;22.00;11.35;;;;;;;8.54;100.00;100188.06;10482244;28;20032;-76
2021/12/09 05:56:44;;;;;;;24.60;11.90;;;;;;;7.47;100.00;100005.94;10482647;28;20052;-76
2021/12/09 06:01:45;;;;;;;22.58;11.98;;;;;;;8.19;100.00;100121.03;10500414;28;20059;-77
2021/12/09 06:06:47;;;;;;;15.95;10.13;;;;;;;7.86;100.00;100058.38;10499812;28;20048;-76
2021/12/09 06:11:49;;;;;;;18.13;10.30;;;;;;;8.70;100.00;100195.25;10500333;28;20043;-76
2021/12/09 06:16:51;;;;;;;19.63;10.45;;;;;;;8.84;100.00;100229.06;10499642;28;20056;-76
2021/12/09 06:21:51;;;;;;;17.40;10.43;;;;;;;8.84;100.00;100213.19;10498172;28;20041;-77
2021/12/09 06:26:52;;;;;;;22.75;11.85;;;;;;;8.40;100.00;100148.94;10481276;28;20503;-77
2021/12/09 06:31:53;;;;;;;23.65;11.18;;;;;;;8.95;99.22;100217.38;10480704;28;20074;-76
2021/12/09 06:36:54;;;;;;;20.95;12.13;;;;;;;9.09;98.99;100224.72;10499186;28;20037;-76
2021/12/09 06:41:55;;;;;;;23.50;13.52;;;;;;;9.12;98.78;100237.63;10498618;28;20063;-76
2021/12/09 06:46:57;;;;;;;21.63;12.35;;;;;;;9.06;98.24;100210.94;10498302;28;20060;-76
2021/12/09 06:51:57;;;;;;;20.42;11.23;;;;;;;9.28;98.14;100234.19;10498679;28;20044;-77
2021/12/09 06:56:58;;;;;;;18.88;10.93;;;;;;;8.63;97.10;100115.63;10498384;28;20511;-76
2021/12/09 07:01:59;;;;;;;18.67;11.00;;;;;;;8.97;97.08;100162.38;10497737;28;20036;-76
2021/12/09 07:07:01;;;;;;;21.67;11.32;;;;;;;9.05;96.69;100194.19;10497736;28;20045;-76
2021/12/09 07:12:02;;;;;;;19.13;11.27;;;;;;;8.57;96.49;100094.25;10496800;28;20051;-76
2021/12/09 07:17:03;;;;;;;21.67;11.98;;;;;;;8.91;95.96;100123.28;10495815;28;20048;-76
2021/12/09 07:22:04;;;;;;;21.17;10.98;;;;;;;9.03;95.71;100116.69;10497492;28;20036;-76
2021/12/09 07:27:05;;;;;;;22.77;10.93;;;;;;;9.92;95.24;100252.16;10496403;28;20040;-77
2021/12/09 07:32:06;;;;;;;18.38;9.93;;;;;;;10.03;94.59;100251.84;10497268;28;20484;-76
2021/12/09 07:37:07;;;;;;;19.50;9.70;;;;;;;10.49;93.51;100229.03;10496233;28;20052;-77
2021/12/09 07:42:11;;;;;;;18.85;8.98;;;;;;;10.94;90.64;100255.97;10496205;28;20190;-77
2021/12/09 07:47:12;;;;;;;19.00;9.53;;;;;;;11.00;90.12;100227.88;10496750;28;20055;-76
2021/12/09 07:52:13;;;;;;;17.08;8.02;;;;;;;11.35;87.79;100221.19;10496563;28;20237;-76
2021/12/09 07:57:14;;;;;;;14.75;8.20;;;;;;;11.73;86.40;100223.94;10495994;28;20166;-75
2021/12/09 08:02:16;;;;;;;15.57;7.57;;;;;;;11.18;83.59;100090.16;10495833;28;20151;-76
2021/12/09 08:07:17;;;;;;;15.52;7.88;;;;;;;12.04;83.12;100232.66;10495646;28;20101;-77
2021/12/09 08:12:18;;;;;;;15.45;9.43;;;;;;;11.97;83.31;100220.28;10496741;28;20178;-77
2021/12/09 08:22:39;;;;;;;15.85;7.60;;;;;;;12.08;81.61;100206.50;10495962;28;20036;-76
2021/12/09 08:27:45;;;;;;;15.98;6.53;;;;;;;12.47;79.26;100242.72;10495317;28;20408;-76
2021/12/09 08:32:46;;;;;;;11.43;7.03;;;;;;;12.61;79.10;100244.59;10495326;28;20050;-76
2021/12/09 08:37:49;;;;;;;12.80;6.90;;;;;;;12.54;78.18;100228.50;10495305;28;20044;-76
2021/12/09 08:42:50;;;;;;;13.02;8.55;;;;;;;11.82;79.50;100114.56;10495492;28;20036;-76
2021/12/09 08:47:51;;;;;;;13.52;6.95;;;;;;;12.45;78.07;100184.31;10494666;28;20060;-77
2021/12/09 08:52:52;;;;;;;16.60;8.35;;;;;;;12.81;77.47;100233.38;10496842;28;20067;-76
2021/12/09 08:57:54;;;;;;;21.23;9.32;;;;;;;12.92;76.54;100235.56;10502705;28;20055;-76
2021/12/09 09:02:54;;;;;;;13.75;6.90;;;;;;;12.53;76.05;100183.38;10502290;28;20504;-76
2021/12/09 09:07:56;;;;;;;17.55;9.30;;;;;;;12.81;76.23;100247.53;10484537;28;20059;-76
2021/12/09 09:12:57;;;;;;;12.27;6.60;;;;;;;12.75;76.82;100237.59;10501940;28;20041;-77
2021/12/09 09:18:00;;;;;;;62.55;33.80;;;;;;;12.81;78.52;100254.72;10502436;28;20045;-75
2021/12/09 09:23:01;;;;;;;16.73;8.27;;;;;;;12.07;77.73;100056.56;10501162;28;20049;-76
2021/12/09 09:28:02;;;;;;;17.25;9.38;;;;;;;13.20;76.67;100223.19;10501229;28;20043;-76
2021/12/09 09:33:09;;;;;;;45.55;23.05;;;;;;;13.08;76.82;100167.88;10501254;28;20051;-76
2021/12/09 09:38:10;;;;;;;29.23;13.63;;;;;;;13.37;76.13;100191.81;10500623;28;20159;-76
2021/12/09 09:43:28;;;;;;;13.63;6.82;;;;;;;12.89;73.29;100103.47;10500479;28;20079;-76
2021/12/09 09:48:29;;;;;;;15.00;6.32;;;;;;;13.65;72.67;100223.88;10500980;28;20080;-76
2021/12/09 09:53:30;;;;;;;14.18;7.10;;;;;;;14.03;72.03;100253.00;10500347;28;20412;-76
2021/12/09 09:58:31;;;;;;;36.90;19.15;;;;;;;14.23;71.29;100252.31;10500780;28;20496;-76
2021/12/09 10:03:41;;;;;;;18.42;9.75;;;;;;;14.50;70.29;100254.13;10498732;28;20094;-77
2021/12/09 10:08:42;;;;;;;16.75;7.30;;;;;;;13.88;70.78;100220.19;10497907;28;20065;-76
2021/12/09 10:13:44;;;;;;;9.65;6.40;;;;;;;13.53;72.88;100238.75;10499704;28;20044;-77
2021/12/09 10:18:48;;;;;;;18.77;10.52;;;;;;;13.02;73.83;100202.25;10499716;28;20040;-75
2021/12/09 10:23:59;;;;;;;11.95;6.93;;;;;;;13.14;74.25;100261.28;10499424;28;20072;-75
2021/12/09 10:29:24;;;;;;;14.93;7.13;;;;;;;12.93;75.31;100258.56;10499254;28;20399;-76
2021/12/09 10:34:35;;;;;;;14.75;6.95;;;;;;;12.86;76.34;100273.63;10480673;28;20051;-76
2021/12/09 10:39:50;;;;;;;15.75;7.35;;;;;;;12.49;76.78;100228.22;10499107;28;20036;-75
2021/12/09 10:44:58;;;;;;;17.08;7.57;;;;;;;12.27;77.50;100219.31;10481777;28;20407;-75
2021/12/09 10:50:08;;;;;;;13.57;7.43;;;;;;;11.55;78.00;100099.19;10497892;28;20463;-76
2021/12/09 10:55:19;;;;;;;16.10;7.68;;;;;;;12.47;78.22;100248.06;10498077;28;20040;-76
2021/12/09 11:00:30;;;;;;;16.10;8.02;;;;;;;11.84;78.38;100136.47;10497910;28;20528;-76
2021/12/09 11:05:34;;;;;;;11.52;7.75;;;;;;;12.67;78.63;100249.19;10497522;28;20036;-76
2021/12/09 11:10:35;;;;;;;12.55;7.63;;;;;;;12.42;78.52;100194.53;10496921;28;20113;-75
2021/12/09 11:15:52;;;;;;;14.77;7.65;;;;;;;12.82;78.32;100254.50;10496176;28;20040;-76
2021/12/09 11:20:53;;;;;;;17.33;7.43;;;;;;;12.52;78.23;100213.72;10495304;28;20044;-75
2021/12/09 11:25:57;;;;;;;15.40;7.43;;;;;;;12.93;78.84;100274.56;10496478;28;20135;-75
2021/12/09 11:31:14;;;;;;;14.77;8.05;;;;;;;12.53;78.62;100186.91;10496738;28;20044;-75
2021/12/09 11:36:57;;;;;;;14.07;7.28;;;;;;;13.28;78.57;100293.47;10496446;28;20051;-75
2021/12/09 11:42:22;;;;;;;19.33;7.80;;;;;;;13.26;78.68;100288.34;10496501;28;20536;-76
2021/12/09 11:47:23;;;;;;;14.00;8.02;;;;;;;13.28;79.09;100312.97;10495663;28;20647;-77
2021/12/09 11:52:24;;;;;;;19.90;9.55;;;;;;;12.87;79.45;100251.31;10496744;28;20110;-76
2021/12/09 12:14:27;;;;;;;12.50;7.03;;;;;;;13.21;80.43;100354.72;10495102;28;20044;-76
2021/12/09 12:19:47;;;;;;;16.48;7.53;;;;;;;12.05;80.71;100174.91;10477354;28;20044;-76
2021/12/09 12:25:27;;;;;;;14.48;8.15;;;;;;;13.09;79.65;100358.84;10484015;28;20094;-76
2021/12/09 12:30:15;;;;;;;15.45;7.85;;;;;;;12.53;78.73;100301.47;10482181;28;20056;-75
2021/12/09 12:40:45;;;;;;;16.33;8.50;;;;;;;12.72;78.72;100390.72;10503504;28;20040;-76
2021/12/09 12:56:24;;;;;;;15.23;7.60;;;;;;;12.12;79.81;100398.72;10461802;28;20547;-75
2021/12/09 13:01:25;;;;;;;14.73;8.23;;;;;;;12.06;80.52;100424.22;10461567;28;20129;-76
2021/12/09 13:07:16;;;;;;;13.57;7.60;;;;;;;11.90;81.71;100432.25;10496834;28;20135;-76
2021/12/09 13:12:44;;;;;;;13.43;7.80;;;;;;;11.12;82.73;100332.81;10475366;28;20047;-77
2021/12/09 13:17:57;;;;;;;22.83;9.13;;;;;;;11.45;83.28;100428.44;10502189;28;20040;-76
2021/12/09 13:23:25;;;;;;;14.35;8.80;;;;;;;11.40;84.42;100459.06;10501641;28;20166;-77
2021/12/09 13:28:40;;;;;;;17.02;9.88;;;;;;;11.36;85.18;100486.97;10473838;28;20048;-73
2021/12/09 13:33:57;;;;;;;18.58;10.98;;;;;;;11.36;85.72;100518.06;10472674;28;20040;-72
2021/12/09 13:50:38;;;;;;;16.65;10.13;;;;;;;11.00;88.11;100538.88;10474971;28;20052;-73
2021/12/09 13:55:37;;;;;;;18.38;11.32;;;;;;;10.47;87.76;100490.50;10490458;28;20037;-73
2021/12/09 14:00:45;;;;;;;16.65;9.75;;;;;;;10.61;88.35;100515.56;10469539;28;20403;-74
2021/12/09 14:05:49;;;;;;;15.65;10.77;;;;;;;10.68;88.80;100544.00;10492984;28;20047;-74
2021/12/09 14:10:54;;;;;;;16.25;10.38;;;;;;;10.21;89.74;100483.44;10459192;28;20455;-74
2021/12/09 14:16:04;;;;;;;18.17;10.77;;;;;;;9.91;89.65;100439.72;10458386;28;20554;-75
2021/12/09 14:21:04;;;;;;;17.85;11.35;;;;;;;9.71;89.57;100414.44;10461774;28;20507;-76
2021/12/09 14:26:06;;;;;;;19.20;10.75;;;;;;;10.50;90.32;100544.13;10499933;28;20044;-75
2021/12/09 14:31:07;;;;;;;24.35;12.75;;;;;;;10.36;90.14;100539.44;10474125;28;20492;-72
2021/12/09 14:36:10;;;;;;;26.65;12.55;;;;;;;10.35;90.33;100540.44;10499086;28;20044;-77
2021/12/09 14:41:26;;;;;;;21.83;13.15;;;;;;;9.77;90.22;100458.91;10498545;28;20518;-77
2021/12/09 14:46:34;;;;;;;19.58;11.10;;;;;;;10.51;90.75;100598.91;10498197;28;20539;-73
2021/12/09 14:51:42;;;;;;;17.25;12.27;;;;;;;9.77;90.93;100496.06;10497901;28;20048;-70
2021/12/09 14:56:54;;;;;;;17.38;12.15;;;;;;;8.64;91.14;100315.88;10496095;28;20055;-72
2021/12/09 15:02:24;;;;;;;25.48;12.93;;;;;;;10.43;92.00;100625.44;10494304;28;20028;-70
2021/12/09 15:07:35;;;;;;;21.88;13.25;;;;;;;8.84;92.02;100376.59;10495611;28;20444;-70
2021/12/09 15:12:39;;;;;;;24.10;12.80;;;;;;;9.94;91.96;100571.28;10480224;28;20183;-74
2021/12/09 15:17:53;;;;;;;25.63;13.40;;;;;;;10.02;92.04;100601.34;10460960;28;20051;-72
2021/12/09 15:22:58;;;;;;;19.35;13.00;;;;;;;10.17;91.45;100641.41;10471979;28;20041;-74
2021/12/09 15:28:04;;;;;;;20.83;13.63;;;;;;;10.17;92.33;100643.19;10469364;28;20128;-76
2021/12/09 15:33:06;;;;;;;23.77;13.18;;;;;;;9.56;92.25;100560.94;10464912;28;20523;-74
2021/12/09 15:38:19;;;;;;;21.70;13.20;;;;;;;10.11;92.48;100642.03;10486990;28;20044;-75
2021/12/09 15:43:24;;;;;;;23.70;13.57;;;;;;;10.25;92.15;100669.78;10490027;28;21211;-74
2021/12/09 15:48:32;;;;;;;19.63;11.45;;;;;;;9.96;92.19;100648.88;10488397;28;20067;-78
2021/12/09 15:53:56;;;;;;;27.45;15.73;;;;;;;9.92;92.32;100658.16;10470408;28;20044;-72
2021/12/09 15:58:58;;;;;;;23.90;13.35;;;;;;;10.03;92.26;100677.31;10488422;28;20048;-73
2021/12/09 16:03:59;;;;;;;24.10;13.02;;;;;;;9.93;91.95;100665.97;10490991;28;20032;-73
2021/12/09 16:09:01;;;;;;;22.40;14.70;;;;;;;10.10;92.25;100706.72;10490607;28;20048;-72
2021/12/09 16:14:02;;;;;;;22.20;13.50;;;;;;;9.32;92.33;100585.44;10487816;28;20051;-73
2021/12/09 16:19:04;;;;;;;22.15;13.57;;;;;;;10.07;92.45;100726.44;10491415;28;20082;-74
2021/12/09 16:24:05;;;;;;;25.13;13.65;;;;;;;9.65;92.53;100657.31;10487382;28;20045;-81
2021/12/09 16:29:06;;;;;;;23.42;13.13;;;;;;;9.74;92.44;100698.81;10491017;28;20031;-77
2021/12/09 16:34:07;;;;;;;18.88;11.23;;;;;;;9.96;92.48;100733.81;10493760;28;20049;-74
2021/12/09 16:39:08;;;;;;;25.50;11.90;;;;;;;9.88;92.55;100734.59;10491981;28;20040;-72
2021/12/09 16:44:09;;;;;;;19.30;11.60;;;;;;;9.88;93.18;100741.72;10495737;28;20139;-74
2021/12/09 16:49:11;;;;;;;18.63;11.18;;;;;;;8.84;92.79;100584.03;10495503;28;20068;-71
2021/12/09 16:54:15;;;;;;;17.05;9.80;;;;;;;9.28;92.92;100657.50;10492002;28;20106;-71
2021/12/09 16:59:26;;;;;;;18.92;9.38;;;;;;;9.56;93.02;100711.28;10494881;28;20044;-73
2021/12/09 17:04:28;;;;;;;24.48;9.98;;;;;;;9.35;93.18;100677.09;10494677;28;20041;-72
2021/12/09 17:09:29;;;;;;;19.88;10.85;;;;;;;9.83;93.25;100769.53;10479637;28;20097;-69
2021/12/09 17:14:31;;;;;;;22.52;11.35;;;;;;;9.84;93.12;100775.66;10495976;28;20044;-70
2021/12/09 17:19:34;;;;;;;19.88;11.65;;;;;;;8.92;93.31;100628.34;10478588;28;20029;-75
2021/12/09 17:24:35;;;;;;;23.85;13.27;;;;;;;9.72;93.22;100750.38;10460780;28;20045;-71
2021/12/09 17:29:37;;;;;;;17.88;9.35;;;;;;;9.34;93.13;100689.53;10459244;28;20037;-69
2021/12/09 17:34:38;;;;;;;13.07;8.65;;;;;;;9.64;92.87;100758.28;10459076;28;20045;-69
2021/12/09 17:39:38;;;;;;;12.77;8.90;;;;;;;8.23;92.42;100519.34;10458761;28;20040;-70
2021/12/09 17:44:40;;;;;;;16.05;8.70;;;;;;;9.30;92.81;100684.66;10459875;28;20063;-72
2021/12/09 17:49:49;;;;;;;24.77;10.48;;;;;;;9.79;92.56;100777.97;10470159;28;20432;-74
2021/12/09 17:54:50;;;;;;;17.02;8.27;;;;;;;9.78;92.65;100765.66;10459430;28;20069;-73
2021/12/09 17:59:51;;;;;;;15.45;8.82;;;;;;;9.93;92.30;100796.00;10459169;28;20075;-71
2021/12/09 18:04:53;;;;;;;15.88;8.15;;;;;;;9.93;92.24;100803.97;10473160;28;20053;-76
2021/12/09 18:09:54;;;;;;;19.45;8.98;;;;;;;8.50;92.17;100567.16;10499977;28;20047;-72
2021/12/09 18:14:55;;;;;;;15.43;7.82;;;;;;;9.06;92.24;100658.75;10481907;28;20071;-76
2021/12/09 18:19:56;;;;;;;12.48;7.43;;;;;;;9.82;92.34;100789.09;10498817;28;20101;-69
2021/12/09 18:24:57;;;;;;;19.38;7.30;;;;;;;9.89;92.49;100797.28;10498639;28;20049;-72
2021/12/09 18:29:58;;;;;;;14.48;7.80;;;;;;;9.62;92.48;100758.41;10498641;28;20097;-69
2021/12/09 18:35:05;;;;;;;14.50;7.00;;;;;;;9.05;92.09;100662.41;10488711;28;20045;-70
2021/12/09 18:40:08;;;;;;;13.57;7.60;;;;;;;9.70;92.36;100779.72;10456628;28;20130;-71
2021/12/09 18:45:11;;;;;;;15.35;6.65;;;;;;;9.78;92.38;100784.25;10470787;28;20408;-73
2021/12/09 18:50:15;;;;;;;19.00;7.10;;;;;;;9.76;92.51;100784.41;10499279;28;20131;-73
2021/12/09 18:55:17;;;;;;;12.53;7.97;;;;;;;9.50;92.44;100751.66;10473799;28;20475;-72
2021/12/09 19:00:21;;;;;;;17.70;9.15;;;;;;;9.16;92.58;100720.50;10459747;28;20159;-72
2021/12/09 19:05:26;;;;;;;16.02;7.60;;;;;;;8.18;92.42;100558.63;10465545;28;20136;-72
2021/12/09 19:10:30;;;;;;;13.48;6.65;;;;;;;9.52;92.45;100777.06;10496550;28;20131;-72
2021/12/09 19:15:32;;;;;;;14.70;7.43;;;;;;;9.80;92.64;100830.88;10496907;28;20076;-73
2021/12/09 19:20:36;;;;;;;21.83;7.70;;;;;;;9.86;92.83;100829.44;10495464;28;20036;-73
2021/12/09 19:25:41;;;;;;;17.25;7.70;;;;;;;9.78;92.76;100827.56;10494485;28;20040;-73
2021/12/09 19:30:42;;;;;;;13.80;7.85;;;;;;;9.56;92.87;100782.88;10494604;28;20041;-72
2021/12/09 19:35:45;;;;;;;12.35;7.00;;;;;;;9.67;92.70;100819.81;10494137;28;20049;-72
2021/12/09 19:40:46;;;;;;;13.38;7.35;;;;;;;9.21;92.62;100734.13;10491396;28;20040;-73
2021/12/09 19:45:47;;;;;;;20.33;8.40;;;;;;;9.44;93.05;100782.25;10494717;28;20119;-72
2021/12/09 19:50:48;;;;;;;20.80;11.55;;;;;;;9.87;92.96;100847.03;10494952;28;20052;-72
2021/12/09 19:55:49;;;;;;;26.42;11.73;;;;;;;9.86;92.92;100850.66;10490997;28;20539;-73
2021/12/09 20:00:51;;;;;;;20.83;10.45;;;;;;;9.81;93.08;100853.78;10493893;28;20136;-73
2021/12/09 20:05:52;;;;;;;21.92;9.88;;;;;;;8.80;92.99;100696.59;10479363;28;20037;-72
2021/12/09 20:10:53;;;;;;;17.67;9.43;;;;;;;9.42;93.09;100802.78;10453716;28;20041;-72
2021/12/09 20:15:54;;;;;;;21.10;10.98;;;;;;;9.73;93.31;100859.00;10453725;28;20523;-73
2021/12/09 20:20:56;;;;;;;16.52;9.60;;;;;;;8.67;93.05;100693.44;10453525;28;20068;-73
2021/12/09 20:25:57;;;;;;;18.77;9.82;;;;;;;8.52;93.18;100676.38;10453653;28;20120;-73
2021/12/09 20:30:58;;;;;;;17.52;8.48;;;;;;;9.73;93.35;100868.78;10453667;28;20094;-72
2021/12/09 20:35:59;;;;;;;17.52;8.23;;;;;;;8.63;93.18;100698.19;10453257;28;20094;-73
2021/12/09 20:41:01;;;;;;;16.23;8.13;;;;;;;8.12;93.29;100624.56;10453906;28;20476;-73
2021/12/09 20:46:03;;;;;;;16.05;8.13;;;;;;;9.56;93.45;100867.75;10453286;28;20520;-73
2021/12/09 20:51:04;;;;;;;20.00;8.00;;;;;;;9.75;93.09;100896.84;10458106;28;20041;-73
2021/12/09 20:56:05;;;;;;;13.77;8.10;;;;;;;9.08;93.24;100784.84;10460845;28;20044;-73
2021/12/09 21:01:06;;;;;;;18.90;8.27;;;;;;;9.52;93.17;100864.56;10460744;28;20039;-73
2021/12/09 21:06:09;;;;;;;20.38;10.15;;;;;;;9.60;93.00;100908.91;10460537;28;20119;-73
2021/12/09 21:11:10;;;;;;;23.25;10.02;;;;;;;8.22;92.95;100692.31;10460466;28;20151;-74
2021/12/09 21:16:11;;;;;;;18.55;8.10;;;;;;;8.20;93.32;100717.28;10460798;28;20136;-73
2021/12/09 21:21:14;;;;;;;15.85;9.13;;;;;;;9.08;93.41;100901.47;10442925;28;20045;-74
2021/12/09 21:26:15;;;;;;;14.05;7.97;;;;;;;8.79;93.25;100887.44;10459912;28;20132;-73
2021/12/09 21:31:18;;;;;;;15.95;8.52;;;;;;;8.72;93.52;100899.59;10460771;28;20056;-74
2021/12/09 21:36:19;;;;;;;14.32;7.47;;;;;;;8.25;93.64;100855.31;10460476;28;20056;-73
2021/12/09 21:41:20;;;;;;;17.98;8.50;;;;;;;8.31;93.69;100890.97;10459351;28;20406;-73
2021/12/09 21:46:21;;;;;;;16.75;7.82;;;;;;;8.03;93.64;100874.13;10459961;28;20052;-73
2021/12/09 21:51:22;;;;;;;15.85;7.45;;;;;;;7.05;93.83;100764.72;10458963;28;20045;-73
2021/12/09 21:56:23;;;;;;;17.08;8.40;;;;;;;7.82;93.91;100913.91;10459376;28;20492;-73
2021/12/09 22:01:24;;;;;;;16.30;8.85;;;;;;;6.61;94.36;100756.22;10457524;28;20052;-73
2021/12/09 22:06:25;;;;;;;20.63;8.57;;;;;;;7.61;95.46;100932.50;10458262;28;20049;-73
2021/12/09 22:11:27;;;;;;;19.17;9.13;;;;;;;6.85;95.56;100829.88;10458537;28;20037;-73
2021/12/09 22:16:31;;;;;;;15.52;9.50;;;;;;;7.27;96.95;100874.66;10458648;28;20443;-74
2021/12/09 22:21:32;;;;;;;18.87;9.60;;;;;;;7.38;96.33;100855.22;10459322;28;20400;-73
2021/12/09 22:26:33;;;;;;;19.05;9.07;;;;;;;7.78;95.47;100908.06;10458062;28;20045;-73
2021/12/09 22:31:35;;;;;;;15.38;9.43;;;;;;;7.76;95.61;100902.91;10457918;28;20040;-73
2021/12/09 22:36:35;;;;;;;16.10;8.73;;;;;;;7.23;95.49;100834.44;10457616;28;20049;-73
2021/12/09 22:41:37;;;;;;;13.60;7.97;;;;;;;7.81;95.15;100936.03;10457311;28;20041;-73
2021/12/09 22:46:39;;;;;;;14.50;8.43;;;;;;;7.54;94.91;100911.06;10455899;28;20049;-73
2021/12/09 22:51:49;;;;;;;19.35;8.88;;;;;;;7.80;94.96;100969.59;10457597;28;20041;-73
2021/12/09 22:56:50;;;;;;;17.33;8.40;;;;;;;7.25;94.88;100877.44;10456789;28;20060;-73
2021/12/09 23:01:51;;;;;;;13.65;8.77;;;;;;;7.81;95.50;100978.34;10456893;28;20041;-73
2021/12/09 23:06:53;;;;;;;20.75;9.60;;;;;;;7.58;94.80;100949.47;10457219;28;20041;-73
2021/12/09 23:11:56;;;;;;;17.33;7.57;;;;;;;7.60;95.13;100974.00;10455669;28;20044;-73
2021/12/09 23:17:00;;;;;;;14.68;8.07;;;;;;;6.90;95.40;100883.09;10466800;28;20052;-73
2021/12/09 23:22:01;;;;;;;14.40;8.10;;;;;;;6.33;95.13;100824.53;10456084;28;20053;-73
2021/12/09 23:27:04;;;;;;;14.13;7.95;;;;;;;5.87;94.57;100774.78;10455945;28;20123;-74
2021/12/09 23:32:05;;;;;;;21.83;11.10;;;;;;;7.06;95.37;100985.69;10455383;28;20044;-73
2021/12/09 23:37:06;;;;;;;17.27;10.82;;;;;;;5.93;95.45;100805.94;10454782;28;20067;-73
2021/12/09 23:42:07;;;;;;;16.35;9.10;;;;;;;6.98;95.24;100988.13;10454672;28;20043;-73
2021/12/09 23:47:08;;;;;;;17.40;8.88;;;;;;;5.88;95.87;100830.00;10455626;28;20486;-73
2021/12/09 23:52:09;;;;;;;19.73;8.82;;;;;;;6.83;95.58;100988.44;10455654;28;20128;-73
2021/12/09 23:57:11;;;;;;;14.43;9.02;;;;;;;6.66;95.83;100983.72;10454710;28;20052;-73
